sensor_id;sensor_type;location;lat;lon;timestamp;P1;durP1;ratioP1;P2;durP2;ratioP2
21299;SDS011;10809;49.476;11.016;2023-06-22T00:02:09;3.80;;;3.50;;
21299;SDS011;10809;49.476;11.016;2023-06-22T00:04:49;3.78;;;3.25;;
21299;SDS011;10809;49.476;11.016;2023-06-22T00:07:20;4.22;;;3.15;;
21299;SDS011;10809;49.476;11.016;2023-06-22T00:09:50;4.90;;;3.55;;
21299;SDS011;10809;49.476;11.016;2023-06-22T00:12:21;3.20;;;2.88;;
21299;SDS011;10809;49.476;11.016;2023-06-22T00:14:51;4.22;;;3.13;;
21299;SDS011;10809;49.476;11.016;2023-06-22T00:17:25;3.35;;;3.00;;
21299;SDS011;10809;49.476;11.016;2023-06-22T00:19:55;5.80;;;3.83;;
21299;SDS011;10809;49.476;11.016;2023-06-22T00:22:28;4.05;;;3.10;;
21299;SDS011;10809;49.476;11.016;2023-06-22T00:27:56;3.40;;;2.50;;
21299;SDS011;10809;49.476;11.016;2023-06-22T00:30:26;4.32;;;2.72;;
21299;SDS011;10809;49.476;11.016;2023-06-22T00:33:00;3.40;;;3.08;;
21299;SDS011;10809;49.476;11.016;2023-06-22T00:35:30;5.53;;;3.53;;
21299;SDS011;10809;49.476;11.016;2023-06-22T00:38:04;3.85;;;2.95;;
21299;SDS011;10809;49.476;11.016;2023-06-22T00:40:34;2.67;;;2.47;;
21299;SDS011;10809;49.476;11.016;2023-06-22T00:43:05;3.78;;;3.13;;
21299;SDS011;10809;49.476;11.016;2023-06-22T00:45:36;3.30;;;2.97;;
21299;SDS011;10809;49.476;11.016;2023-06-22T00:48:06;3.25;;;2.65;;
21299;SDS011;10809;49.476;11.016;2023-06-22T00:50:41;3.05;;;2.75;;
21299;SDS011;10809;49.476;11.016;2023-06-22T00:53:12;3.80;;;3.03;;
21299;SDS011;10809;49.476;11.016;2023-06-22T00:55:43;4.38;;;2.65;;
21299;SDS011;10809;49.476;11.016;2023-06-22T00:58:21;2.95;;;2.60;;
21299;SDS011;10809;49.476;11.016;2023-06-22T01:00:52;3.03;;;2.72;;
21299;SDS011;10809;49.476;11.016;2023-06-22T01:03:26;5.10;;;3.28;;
21299;SDS011;10809;49.476;11.016;2023-06-22T01:05:59;4.22;;;3.55;;
21299;SDS011;10809;49.476;11.016;2023-06-22T01:08:44;3.50;;;3.20;;
21299;SDS011;10809;49.476;11.016;2023-06-22T01:11:56;3.55;;;3.00;;
21299;SDS011;10809;49.476;11.016;2023-06-22T01:14:24;3.45;;;2.67;;
21299;SDS011;10809;49.476;11.016;2023-06-22T01:17:13;3.35;;;3.00;;
21299;SDS011;10809;49.476;11.016;2023-06-22T01:19:54;3.67;;;3.28;;
21299;SDS011;10809;49.476;11.016;2023-06-22T01:22:28;4.07;;;3.20;;
21299;SDS011;10809;49.476;11.016;2023-06-22T01:30:16;4.47;;;3.03;;
21299;SDS011;10809;49.476;11.016;2023-06-22T01:32:48;3.90;;;3.50;;
21299;SDS011;10809;49.476;11.016;2023-06-22T01:35:21;3.42;;;3.05;;
21299;SDS011;10809;49.476;11.016;2023-06-22T01:37:51;4.00;;;3.40;;
21299;SDS011;10809;49.476;11.016;2023-06-22T01:40:25;4.70;;;3.42;;
21299;SDS011;10809;49.476;11.016;2023-06-22T01:42:57;7.25;;;3.72;;
21299;SDS011;10809;49.476;11.016;2023-06-22T01:45:39;3.80;;;3.45;;
21299;SDS011;10809;49.476;11.016;2023-06-22T01:48:10;3.83;;;3.33;;
21299;SDS011;10809;49.476;11.016;2023-06-22T01:50:41;3.88;;;3.47;;
21299;SDS011;10809;49.476;11.016;2023-06-22T01:53:15;7.30;;;3.13;;
21299;SDS011;10809;49.476;11.016;2023-06-22T01:55:45;3.17;;;2.88;;
21299;SDS011;10809;49.476;11.016;2023-06-22T01:58:16;3.25;;;2.95;;
21299;SDS011;10809;49.476;11.016;2023-06-22T02:01:02;3.42;;;3.13;;
21299;SDS011;10809;49.476;11.016;2023-06-22T02:06:35;3.92;;;3.20;;
21299;SDS011;10809;49.476;11.016;2023-06-22T02:09:12;4.45;;;3.20;;
21299;SDS011;10809;49.476;11.016;2023-06-22T02:11:46;3.17;;;2.65;;
21299;SDS011;10809;49.476;11.016;2023-06-22T02:14:19;4.72;;;3.53;;
21299;SDS011;10809;49.476;11.016;2023-06-22T02:16:50;3.60;;;3.25;;
21299;SDS011;10809;49.476;11.016;2023-06-22T02:19:24;4.45;;;3.40;;
21299;SDS011;10809;49.476;11.016;2023-06-22T02:21:56;5.60;;;3.45;;
21299;SDS011;10809;49.476;11.016;2023-06-22T02:24:27;3.70;;;3.40;;
21299;SDS011;10809;49.476;11.016;2023-06-22T02:27:01;3.88;;;3.03;;
21299;SDS011;10809;49.476;11.016;2023-06-22T02:29:36;3.58;;;2.95;;
21299;SDS011;10809;49.476;11.016;2023-06-22T02:32:07;3.97;;;2.95;;
21299;SDS011;10809;49.476;11.016;2023-06-22T02:34:37;3.20;;;2.92;;
21299;SDS011;10809;49.476;11.016;2023-06-22T02:37:11;4.15;;;3.47;;
21299;SDS011;10809;49.476;11.016;2023-06-22T02:39:44;3.42;;;3.10;;
21299;SDS011;10809;49.476;11.016;2023-06-22T02:42:14;3.85;;;3.38;;
21299;SDS011;10809;49.476;11.016;2023-06-22T02:44:46;3.58;;;3.28;;
21299;SDS011;10809;49.476;11.016;2023-06-22T02:47:17;3.38;;;3.00;;
21299;SDS011;10809;49.476;11.016;2023-06-22T02:49:47;3.05;;;2.80;;
21299;SDS011;10809;49.476;11.016;2023-06-22T02:52:18;4.65;;;3.97;;
21299;SDS011;10809;49.476;11.016;2023-06-22T02:54:48;6.13;;;3.72;;
21299;SDS011;10809;49.476;11.016;2023-06-22T02:57:19;4.20;;;3.70;;
21299;SDS011;10809;49.476;11.016;2023-06-22T02:59:49;3.90;;;3.60;;
21299;SDS011;10809;49.476;11.016;2023-06-22T03:02:20;4.85;;;3.90;;
21299;SDS011;10809;49.476;11.016;2023-06-22T03:04:52;5.18;;;4.10;;
21299;SDS011;10809;49.476;11.016;2023-06-22T03:07:24;4.63;;;4.20;;
21299;SDS011;10809;49.476;11.016;2023-06-22T03:09:56;4.40;;;4.00;;
21299;SDS011;10809;49.476;11.016;2023-06-22T03:12:26;4.03;;;3.63;;
21299;SDS011;10809;49.476;11.016;2023-06-22T03:14:58;4.30;;;3.90;;
21299;SDS011;10809;49.476;11.016;2023-06-22T03:17:29;5.78;;;3.95;;
21299;SDS011;10809;49.476;11.016;2023-06-22T03:20:00;3.75;;;3.35;;
21299;SDS011;10809;49.476;11.016;2023-06-22T03:22:31;4.60;;;3.90;;
21299;SDS011;10809;49.476;11.016;2023-06-22T03:25:01;6.15;;;4.30;;
21299;SDS011;10809;49.476;11.016;2023-06-22T03:27:32;5.65;;;4.13;;
21299;SDS011;10809;49.476;11.016;2023-06-22T03:30:03;5.80;;;4.13;;
21299;SDS011;10809;49.476;11.016;2023-06-22T03:32:36;4.30;;;3.90;;
21299;SDS011;10809;49.476;11.016;2023-06-22T03:35:06;5.15;;;4.32;;
21299;SDS011;10809;49.476;11.016;2023-06-22T03:37:39;4.45;;;4.03;;
21299;SDS011;10809;49.476;11.016;2023-06-22T03:40:16;4.82;;;4.15;;
21299;SDS011;10809;49.476;11.016;2023-06-22T03:42:59;4.93;;;3.97;;
21299;SDS011;10809;49.476;11.016;2023-06-22T03:45:29;4.38;;;3.97;;
21299;SDS011;10809;49.476;11.016;2023-06-22T03:48:00;5.05;;;4.22;;
21299;SDS011;10809;49.476;11.016;2023-06-22T03:50:34;6.43;;;4.38;;
21299;SDS011;10809;49.476;11.016;2023-06-22T03:53:04;5.28;;;4.40;;
21299;SDS011;10809;49.476;11.016;2023-06-22T03:55:47;4.55;;;4.15;;
21299;SDS011;10809;49.476;11.016;2023-06-22T03:58:20;5.82;;;4.18;;
21299;SDS011;10809;49.476;11.016;2023-06-22T04:00:57;6.38;;;4.53;;
21299;SDS011;10809;49.476;11.016;2023-06-22T04:03:31;4.57;;;3.85;;
21299;SDS011;10809;49.476;11.016;2023-06-22T04:06:04;4.65;;;3.80;;
21299;SDS011;10809;49.476;11.016;2023-06-22T04:08:35;4.25;;;3.85;;
21299;SDS011;10809;49.476;11.016;2023-06-22T04:11:14;4.20;;;3.40;;
21299;SDS011;10809;49.476;11.016;2023-06-22T04:13:45;4.47;;;4.07;;
21299;SDS011;10809;49.476;11.016;2023-06-22T04:16:15;3.95;;;3.55;;
21299;SDS011;10809;49.476;11.016;2023-06-22T04:18:46;4.70;;;3.83;;
21299;SDS011;10809;49.476;11.016;2023-06-22T04:21:16;3.55;;;3.25;;
21299;SDS011;10809;49.476;11.016;2023-06-22T04:23:47;4.47;;;3.95;;
21299;SDS011;10809;49.476;11.016;2023-06-22T04:26:21;4.40;;;3.80;;
21299;SDS011;10809;49.476;11.016;2023-06-22T04:28:54;3.90;;;3.53;;
21299;SDS011;10809;49.476;11.016;2023-06-22T04:31:28;4.07;;;3.65;;
21299;SDS011;10809;49.476;11.016;2023-06-22T04:34:05;6.10;;;3.15;;
21299;SDS011;10809;49.476;11.016;2023-06-22T04:36:44;3.88;;;3.47;;
21299;SDS011;10809;49.476;11.016;2023-06-22T04:39:15;3.63;;;3.17;;
21299;SDS011;10809;49.476;11.016;2023-06-22T04:41:45;3.58;;;3.28;;
21299;SDS011;10809;49.476;11.016;2023-06-22T04:44:16;4.13;;;3.58;;
21299;SDS011;10809;49.476;11.016;2023-06-22T04:47:01;3.78;;;3.47;;
21299;SDS011;10809;49.476;11.016;2023-06-22T04:49:36;3.70;;;3.40;;
21299;SDS011;10809;49.476;11.016;2023-06-22T04:52:08;4.70;;;3.55;;
21299;SDS011;10809;49.476;11.016;2023-06-22T04:54:40;3.42;;;2.97;;
21299;SDS011;10809;49.476;11.016;2023-06-22T04:57:21;4.97;;;3.70;;
21299;SDS011;10809;49.476;11.016;2023-06-22T05:00:02;4.60;;;3.65;;
21299;SDS011;10809;49.476;11.016;2023-06-22T05:02:45;3.85;;;3.45;;
21299;SDS011;10809;49.476;11.016;2023-06-22T05:05:16;3.97;;;3.58;;
21299;SDS011;10809;49.476;11.016;2023-06-22T05:07:49;3.67;;;3.35;;
21299;SDS011;10809;49.476;11.016;2023-06-22T05:10:22;4.00;;;3.65;;
21299;SDS011;10809;49.476;11.016;2023-06-22T05:12:59;3.35;;;3.05;;
21299;SDS011;10809;49.476;11.016;2023-06-22T05:15:33;3.92;;;3.55;;
21299;SDS011;10809;49.476;11.016;2023-06-22T05:18:06;3.45;;;3.15;;
21299;SDS011;10809;49.476;11.016;2023-06-22T05:20:37;3.70;;;3.40;;
21299;SDS011;10809;49.476;11.016;2023-06-22T05:23:08;3.25;;;2.95;;
21299;SDS011;10809;49.476;11.016;2023-06-22T05:25:38;3.75;;;3.30;;
21299;SDS011;10809;49.476;11.016;2023-06-22T05:28:09;4.10;;;3.35;;
21299;SDS011;10809;49.476;11.016;2023-06-22T05:30:44;5.18;;;4.03;;
21299;SDS011;10809;49.476;11.016;2023-06-22T05:33:14;3.67;;;3.35;;
21299;SDS011;10809;49.476;11.016;2023-06-22T05:35:45;4.05;;;3.65;;
21299;SDS011;10809;49.476;11.016;2023-06-22T05:38:15;4.05;;;3.38;;
21299;SDS011;10809;49.476;11.016;2023-06-22T05:40:45;3.80;;;3.40;;
21299;SDS011;10809;49.476;11.016;2023-06-22T05:43:16;4.57;;;3.70;;
21299;SDS011;10809;49.476;11.016;2023-06-22T05:45:46;5.78;;;3.55;;
21299;SDS011;10809;49.476;11.016;2023-06-22T05:48:17;5.45;;;3.92;;
21299;SDS011;10809;49.476;11.016;2023-06-22T05:50:47;5.30;;;3.60;;
21299;SDS011;10809;49.476;11.016;2023-06-22T05:53:17;3.88;;;3.58;;
21299;SDS011;10809;49.476;11.016;2023-06-22T05:55:51;3.72;;;3.42;;
21299;SDS011;10809;49.476;11.016;2023-06-22T05:58:21;3.65;;;3.35;;
21299;SDS011;10809;49.476;11.016;2023-06-22T06:00:52;4.30;;;3.50;;
21299;SDS011;10809;49.476;11.016;2023-06-22T06:03:22;4.43;;;4.03;;
21299;SDS011;10809;49.476;11.016;2023-06-22T06:05:53;3.90;;;3.50;;
21299;SDS011;10809;49.476;11.016;2023-06-22T06:08:23;4.18;;;3.60;;
21299;SDS011;10809;49.476;11.016;2023-06-22T06:10:53;4.22;;;3.83;;
21299;SDS011;10809;49.476;11.016;2023-06-22T06:13:25;3.80;;;3.50;;
21299;SDS011;10809;49.476;11.016;2023-06-22T06:15:55;3.83;;;3.53;;
21299;SDS011;10809;49.476;11.016;2023-06-22T06:18:27;3.78;;;3.47;;
21299;SDS011;10809;49.476;11.016;2023-06-22T06:20:57;4.90;;;3.67;;
21299;SDS011;10809;49.476;11.016;2023-06-22T06:23:27;4.88;;;3.60;;
21299;SDS011;10809;49.476;11.016;2023-06-22T06:26:01;5.13;;;3.90;;
21299;SDS011;10809;49.476;11.016;2023-06-22T06:28:31;3.88;;;3.58;;
21299;SDS011;10809;49.476;11.016;2023-06-22T06:31:04;3.88;;;3.45;;
21299;SDS011;10809;49.476;11.016;2023-06-22T06:33:37;3.58;;;3.25;;
21299;SDS011;10809;49.476;11.016;2023-06-22T06:36:07;3.70;;;3.33;;
21299;SDS011;10809;49.476;11.016;2023-06-22T06:38:38;3.67;;;3.38;;
21299;SDS011;10809;49.476;11.016;2023-06-22T06:41:08;7.20;;;3.47;;
21299;SDS011;10809;49.476;11.016;2023-06-22T06:43:39;4.70;;;3.70;;
21299;SDS011;10809;49.476;11.016;2023-06-22T06:46:09;5.10;;;3.58;;
21299;SDS011;10809;49.476;11.016;2023-06-22T06:48:40;4.07;;;3.60;;
21299;SDS011;10809;49.476;11.016;2023-06-22T06:51:19;3.47;;;3.15;;
21299;SDS011;10809;49.476;11.016;2023-06-22T06:53:49;3.45;;;3.15;;
21299;SDS011;10809;49.476;11.016;2023-06-22T06:56:20;3.75;;;3.45;;
21299;SDS011;10809;49.476;11.016;2023-06-22T06:58:51;6.57;;;3.70;;
21299;SDS011;10809;49.476;11.016;2023-06-22T07:01:24;3.45;;;3.17;;
21299;SDS011;10809;49.476;11.016;2023-06-22T07:03:55;3.95;;;3.38;;
21299;SDS011;10809;49.476;11.016;2023-06-22T07:06:25;3.50;;;3.20;;
21299;SDS011;10809;49.476;11.016;2023-06-22T07:08:59;4.13;;;3.05;;
21299;SDS011;10809;49.476;11.016;2023-06-22T07:11:29;3.75;;;3.40;;
21299;SDS011;10809;49.476;11.016;2023-06-22T07:14:00;4.30;;;3.72;;
21299;SDS011;10809;49.476;11.016;2023-06-22T07:16:31;3.70;;;3.15;;
21299;SDS011;10809;49.476;11.016;2023-06-22T07:19:02;3.88;;;3.55;;
21299;SDS011;10809;49.476;11.016;2023-06-22T07:21:33;3.65;;;3.38;;
21299;SDS011;10809;49.476;11.016;2023-06-22T07:24:04;2.88;;;2.63;;
21299;SDS011;10809;49.476;11.016;2023-06-22T07:26:35;3.70;;;3.40;;
21299;SDS011;10809;49.476;11.016;2023-06-22T07:29:06;3.67;;;3.38;;
21299;SDS011;10809;49.476;11.016;2023-06-22T07:31:36;3.38;;;2.67;;
21299;SDS011;10809;49.476;11.016;2023-06-22T07:34:06;3.53;;;3.25;;
21299;SDS011;10809;49.476;11.016;2023-06-22T07:36:37;3.33;;;3.03;;
21299;SDS011;10809;49.476;11.016;2023-06-22T07:39:07;3.15;;;2.95;;
21299;SDS011;10809;49.476;11.016;2023-06-22T07:41:38;4.00;;;3.60;;
21299;SDS011;10809;49.476;11.016;2023-06-22T07:44:10;4.40;;;3.10;;
21299;SDS011;10809;49.476;11.016;2023-06-22T07:46:41;3.13;;;2.78;;
21299;SDS011;10809;49.476;11.016;2023-06-22T07:49:11;4.00;;;3.45;;
21299;SDS011;10809;49.476;11.016;2023-06-22T07:51:41;3.35;;;3.08;;
21299;SDS011;10809;49.476;11.016;2023-06-22T07:54:12;4.03;;;3.42;;
21299;SDS011;10809;49.476;11.016;2023-06-22T07:56:42;3.03;;;2.80;;
21299;SDS011;10809;49.476;11.016;2023-06-22T07:59:19;3.00;;;2.80;;
21299;SDS011;10809;49.476;11.016;2023-06-22T08:01:52;2.70;;;2.50;;
21299;SDS011;10809;49.476;11.016;2023-06-22T08:04:23;3.92;;;3.22;;
21299;SDS011;10809;49.476;11.016;2023-06-22T08:06:54;3.85;;;2.65;;
21299;SDS011;10809;49.476;11.016;2023-06-22T08:09:24;3.70;;;3.20;;
21299;SDS011;10809;49.476;11.016;2023-06-22T08:11:54;3.00;;;2.70;;
21299;SDS011;10809;49.476;11.016;2023-06-22T08:14:26;4.65;;;2.65;;
21299;SDS011;10809;49.476;11.016;2023-06-22T08:16:57;2.42;;;2.25;;
21299;SDS011;10809;49.476;11.016;2023-06-22T08:19:30;2.95;;;2.50;;
21299;SDS011;10809;49.476;11.016;2023-06-22T08:22:04;2.35;;;2.15;;
21299;SDS011;10809;49.476;11.016;2023-06-22T08:24:35;2.67;;;2.47;;
21299;SDS011;10809;49.476;11.016;2023-06-22T08:27:06;3.00;;;2.70;;
21299;SDS011;10809;49.476;11.016;2023-06-22T08:29:45;2.65;;;2.45;;
21299;SDS011;10809;49.476;11.016;2023-06-22T08:32:15;3.58;;;2.38;;
21299;SDS011;10809;49.476;11.016;2023-06-22T08:34:45;4.07;;;2.50;;
21299;SDS011;10809;49.476;11.016;2023-06-22T08:37:16;2.50;;;2.30;;
21299;SDS011;10809;49.476;11.016;2023-06-22T08:39:46;2.30;;;2.10;;
21299;SDS011;10809;49.476;11.016;2023-06-22T08:42:17;2.53;;;2.33;;
21299;SDS011;10809;49.476;11.016;2023-06-22T08:44:47;3.38;;;2.10;;
21299;SDS011;10809;49.476;11.016;2023-06-22T08:47:17;2.50;;;2.30;;
21299;SDS011;10809;49.476;11.016;2023-06-22T08:49:48;3.45;;;1.80;;
21299;SDS011;10809;49.476;11.016;2023-06-22T08:52:19;3.33;;;2.38;;
21299;SDS011;10809;49.476;11.016;2023-06-22T08:54:50;2.50;;;2.30;;
21299;SDS011;10809;49.476;11.016;2023-06-22T08:57:21;3.38;;;2.17;;
21299;SDS011;10809;49.476;11.016;2023-06-22T08:59:52;3.00;;;2.05;;
21299;SDS011;10809;49.476;11.016;2023-06-22T09:02:32;2.47;;;2.28;;
21299;SDS011;10809;49.476;11.016;2023-06-22T09:05:08;4.93;;;2.30;;
21299;SDS011;10809;49.476;11.016;2023-06-22T09:07:41;2.75;;;2.47;;
21299;SDS011;10809;49.476;11.016;2023-06-22T09:10:18;2.70;;;2.30;;
21299;SDS011;10809;49.476;11.016;2023-06-22T09:12:48;2.25;;;2.05;;
21299;SDS011;10809;49.476;11.016;2023-06-22T09:15:19;2.28;;;2.08;;
21299;SDS011;10809;49.476;11.016;2023-06-22T09:17:49;2.00;;;1.90;;
21299;SDS011;10809;49.476;11.016;2023-06-22T09:20:19;3.38;;;2.05;;
21299;SDS011;10809;49.476;11.016;2023-06-22T09:22:50;2.88;;;2.50;;
21299;SDS011;10809;49.476;11.016;2023-06-22T09:25:20;2.88;;;2.13;;
21299;SDS011;10809;49.476;11.016;2023-06-22T09:27:50;2.53;;;2.33;;
21299;SDS011;10809;49.476;11.016;2023-06-22T09:30:21;2.22;;;2.03;;
21299;SDS011;10809;49.476;11.016;2023-06-22T09:32:52;6.22;;;2.22;;
21299;SDS011;10809;49.476;11.016;2023-06-22T09:35:25;4.25;;;2.78;;
21299;SDS011;10809;49.476;11.016;2023-06-22T09:37:56;3.58;;;2.20;;
21299;SDS011;10809;49.476;11.016;2023-06-22T09:40:26;3.30;;;2.28;;
21299;SDS011;10809;49.476;11.016;2023-06-22T09:42:56;2.30;;;2.10;;
21299;SDS011;10809;49.476;11.016;2023-06-22T09:45:30;3.33;;;2.08;;
21299;SDS011;10809;49.476;11.016;2023-06-22T09:48:01;3.55;;;2.58;;
21299;SDS011;10809;49.476;11.016;2023-06-22T09:50:32;4.07;;;2.67;;
21299;SDS011;10809;49.476;11.016;2023-06-22T09:53:02;4.57;;;2.85;;
21299;SDS011;10809;49.476;11.016;2023-06-22T09:55:32;3.30;;;2.45;;
21299;SDS011;10809;49.476;11.016;2023-06-22T09:58:03;3.38;;;2.33;;
21299;SDS011;10809;49.476;11.016;2023-06-22T10:00:33;3.78;;;2.22;;
21299;SDS011;10809;49.476;11.016;2023-06-22T10:03:07;2.97;;;2.20;;
21299;SDS011;10809;49.476;11.016;2023-06-22T10:05:37;3.63;;;2.47;;
21299;SDS011;10809;49.476;11.016;2023-06-22T10:08:08;2.63;;;2.30;;
21299;SDS011;10809;49.476;11.016;2023-06-22T10:10:45;3.25;;;2.55;;
21299;SDS011;10809;49.476;11.016;2023-06-22T10:13:22;3.92;;;2.15;;
21299;SDS011;10809;49.476;11.016;2023-06-22T10:15:58;3.10;;;2.58;;
21299;SDS011;10809;49.476;11.016;2023-06-22T10:18:29;2.65;;;2.30;;
21299;SDS011;10809;49.476;11.016;2023-06-22T10:21:00;3.47;;;2.30;;
21299;SDS011;10809;49.476;11.016;2023-06-22T10:23:31;3.83;;;2.92;;
21299;SDS011;10809;49.476;11.016;2023-06-22T10:26:07;3.13;;;2.33;;
21299;SDS011;10809;49.476;11.016;2023-06-22T10:28:41;3.92;;;2.47;;
21299;SDS011;10809;49.476;11.016;2023-06-22T10:31:11;4.97;;;2.45;;
21299;SDS011;10809;49.476;11.016;2023-06-22T10:33:41;4.25;;;2.40;;
21299;SDS011;10809;49.476;11.016;2023-06-22T10:36:13;5.93;;;2.40;;
21299;SDS011;10809;49.476;11.016;2023-06-22T10:38:47;3.05;;;2.13;;
21299;SDS011;10809;49.476;11.016;2023-06-22T10:41:17;3.05;;;2.40;;
21299;SDS011;10809;49.476;11.016;2023-06-22T10:43:56;3.60;;;2.30;;
21299;SDS011;10809;49.476;11.016;2023-06-22T10:46:27;2.20;;;2.00;;
21299;SDS011;10809;49.476;11.016;2023-06-22T10:49:03;4.15;;;2.17;;
21299;SDS011;10809;49.476;11.016;2023-06-22T10:51:34;3.90;;;2.80;;
21299;SDS011;10809;49.476;11.016;2023-06-22T10:54:04;3.72;;;2.83;;
21299;SDS011;10809;49.476;11.016;2023-06-22T10:56:38;2.58;;;2.22;;
21299;SDS011;10809;49.476;11.016;2023-06-22T10:59:08;3.05;;;2.15;;
21299;SDS011;10809;49.476;11.016;2023-06-22T11:01:38;2.47;;;2.28;;
21299;SDS011;10809;49.476;11.016;2023-06-22T11:04:09;4.82;;;2.75;;
21299;SDS011;10809;49.476;11.016;2023-06-22T11:06:39;3.30;;;2.40;;
21299;SDS011;10809;49.476;11.016;2023-06-22T11:09:09;3.03;;;2.50;;
21299;SDS011;10809;49.476;11.016;2023-06-22T11:11:40;3.47;;;3.00;;
21299;SDS011;10809;49.476;11.016;2023-06-22T11:14:10;3.05;;;2.67;;
21299;SDS011;10809;49.476;11.016;2023-06-22T11:16:41;2.72;;;2.30;;
21299;SDS011;10809;49.476;11.016;2023-06-22T11:19:11;3.88;;;2.60;;
21299;SDS011;10809;49.476;11.016;2023-06-22T11:21:42;2.72;;;2.28;;
21299;SDS011;10809;49.476;11.016;2023-06-22T11:24:13;4.03;;;2.40;;
21299;SDS011;10809;49.476;11.016;2023-06-22T11:26:43;3.95;;;2.65;;
21299;SDS011;10809;49.476;11.016;2023-06-22T11:29:14;3.92;;;2.42;;
21299;SDS011;10809;49.476;11.016;2023-06-22T11:31:53;4.15;;;2.53;;
21299;SDS011;10809;49.476;11.016;2023-06-22T11:34:24;3.40;;;2.65;;
21299;SDS011;10809;49.476;11.016;2023-06-22T11:36:54;5.00;;;2.67;;
21299;SDS011;10809;49.476;11.016;2023-06-22T11:39:25;5.50;;;3.00;;
21299;SDS011;10809;49.476;11.016;2023-06-22T11:41:55;6.85;;;2.65;;
21299;SDS011;10809;49.476;11.016;2023-06-22T11:44:26;4.80;;;2.67;;
21299;SDS011;10809;49.476;11.016;2023-06-22T11:46:56;2.85;;;2.50;;
21299;SDS011;10809;49.476;11.016;2023-06-22T11:49:27;4.60;;;2.70;;
21299;SDS011;10809;49.476;11.016;2023-06-22T11:51:57;5.40;;;2.63;;
21299;SDS011;10809;49.476;11.016;2023-06-22T11:54:28;3.42;;;2.58;;
21299;SDS011;10809;49.476;11.016;2023-06-22T11:56:59;3.85;;;2.63;;
21299;SDS011;10809;49.476;11.016;2023-06-22T11:59:29;3.97;;;2.47;;
21299;SDS011;10809;49.476;11.016;2023-06-22T12:02:00;2.65;;;2.45;;
21299;SDS011;10809;49.476;11.016;2023-06-22T12:04:39;5.60;;;2.88;;
21299;SDS011;10809;49.476;11.016;2023-06-22T12:07:13;3.47;;;2.38;;
21299;SDS011;10809;49.476;11.016;2023-06-22T12:09:44;4.65;;;2.70;;
21299;SDS011;10809;49.476;11.016;2023-06-22T12:12:14;6.55;;;2.58;;
21299;SDS011;10809;49.476;11.016;2023-06-22T12:14:45;4.82;;;2.75;;
21299;SDS011;10809;49.476;11.016;2023-06-22T12:17:15;5.57;;;2.65;;
21299;SDS011;10809;49.476;11.016;2023-06-22T12:19:46;4.32;;;2.45;;
21299;SDS011;10809;49.476;11.016;2023-06-22T12:22:16;3.20;;;2.40;;
21299;SDS011;10809;49.476;11.016;2023-06-22T12:24:47;4.25;;;2.60;;
21299;SDS011;10809;49.476;11.016;2023-06-22T12:27:17;3.75;;;3.15;;
21299;SDS011;10809;49.476;11.016;2023-06-22T12:29:48;4.35;;;2.25;;
21299;SDS011;10809;49.476;11.016;2023-06-22T12:32:19;5.85;;;2.63;;
21299;SDS011;10809;49.476;11.016;2023-06-22T12:34:49;3.40;;;3.08;;
21299;SDS011;10809;49.476;11.016;2023-06-22T12:37:19;4.53;;;2.95;;
21299;SDS011;10809;49.476;11.016;2023-06-22T12:39:50;3.78;;;2.35;;
21299;SDS011;10809;49.476;11.016;2023-06-22T12:42:20;6.18;;;2.60;;
21299;SDS011;10809;49.476;11.016;2023-06-22T12:44:51;4.18;;;2.60;;
21299;SDS011;10809;49.476;11.016;2023-06-22T12:47:21;3.50;;;2.75;;
21299;SDS011;10809;49.476;11.016;2023-06-22T12:49:52;3.25;;;2.58;;
21299;SDS011;10809;49.476;11.016;2023-06-22T12:52:22;4.65;;;2.63;;
21299;SDS011;10809;49.476;11.016;2023-06-22T12:54:53;3.38;;;2.63;;
21299;SDS011;10809;49.476;11.016;2023-06-22T12:57:24;6.18;;;2.70;;
21299;SDS011;10809;49.476;11.016;2023-06-22T12:59:55;4.57;;;2.53;;
21299;SDS011;10809;49.476;11.016;2023-06-22T13:02:26;3.00;;;2.42;;
21299;SDS011;10809;49.476;11.016;2023-06-22T13:04:56;3.20;;;2.58;;
21299;SDS011;10809;49.476;11.016;2023-06-22T13:07:27;6.68;;;2.78;;
21299;SDS011;10809;49.476;11.016;2023-06-22T13:09:57;5.07;;;2.65;;
21299;SDS011;10809;49.476;11.016;2023-06-22T13:12:28;3.83;;;2.70;;
21299;SDS011;10809;49.476;11.016;2023-06-22T13:14:58;5.82;;;2.35;;
21299;SDS011;10809;49.476;11.016;2023-06-22T13:17:29;3.50;;;2.55;;
21299;SDS011;10809;49.476;11.016;2023-06-22T13:20:00;5.05;;;2.67;;
21299;SDS011;10809;49.476;11.016;2023-06-22T13:22:37;3.88;;;2.90;;
21299;SDS011;10809;49.476;11.016;2023-06-22T13:25:16;2.88;;;1.92;;
21299;SDS011;10809;49.476;11.016;2023-06-22T13:27:49;3.85;;;2.78;;
21299;SDS011;10809;49.476;11.016;2023-06-22T13:30:19;3.13;;;2.20;;
21299;SDS011;10809;49.476;11.016;2023-06-22T13:32:53;2.72;;;2.20;;
21299;SDS011;10809;49.476;11.016;2023-06-22T13:35:23;5.32;;;2.67;;
21299;SDS011;10809;49.476;11.016;2023-06-22T13:37:57;3.65;;;3.10;;
21299;SDS011;10809;49.476;11.016;2023-06-22T13:40:28;4.32;;;2.40;;
21299;SDS011;10809;49.476;11.016;2023-06-22T13:42:58;5.97;;;2.58;;
21299;SDS011;10809;49.476;11.016;2023-06-22T13:45:29;2.90;;;2.25;;
21299;SDS011;10809;49.476;11.016;2023-06-22T13:47:59;4.53;;;2.35;;
21299;SDS011;10809;49.476;11.016;2023-06-22T13:50:30;5.38;;;2.70;;
21299;SDS011;10809;49.476;11.016;2023-06-22T13:53:00;4.50;;;2.72;;
21299;SDS011;10809;49.476;11.016;2023-06-22T13:55:31;4.90;;;2.75;;
21299;SDS011;10809;49.476;11.016;2023-06-22T13:58:01;4.32;;;2.30;;
21299;SDS011;10809;49.476;11.016;2023-06-22T14:00:31;3.42;;;2.65;;
21299;SDS011;10809;49.476;11.016;2023-06-22T14:03:02;4.22;;;2.53;;
21299;SDS011;10809;49.476;11.016;2023-06-22T14:05:33;3.75;;;2.38;;
21299;SDS011;10809;49.476;11.016;2023-06-22T14:08:03;4.35;;;2.40;;
21299;SDS011;10809;49.476;11.016;2023-06-22T14:10:35;4.43;;;2.72;;
21299;SDS011;10809;49.476;11.016;2023-06-22T14:13:05;5.25;;;2.50;;
21299;SDS011;10809;49.476;11.016;2023-06-22T14:15:36;4.20;;;3.15;;
21299;SDS011;10809;49.476;11.016;2023-06-22T14:18:09;6.07;;;3.03;;
21299;SDS011;10809;49.476;11.016;2023-06-22T14:20:40;2.80;;;2.50;;
21299;SDS011;10809;49.476;11.016;2023-06-22T14:23:10;4.85;;;2.85;;
21299;SDS011;10809;49.476;11.016;2023-06-22T14:25:41;3.45;;;2.58;;
21299;SDS011;10809;49.476;11.016;2023-06-22T14:28:11;4.05;;;2.83;;
21299;SDS011;10809;49.476;11.016;2023-06-22T14:30:42;3.40;;;2.50;;
21299;SDS011;10809;49.476;11.016;2023-06-22T14:33:12;3.42;;;2.95;;
21299;SDS011;10809;49.476;11.016;2023-06-22T14:35:43;3.53;;;2.63;;
21299;SDS011;10809;49.476;11.016;2023-06-22T14:38:13;2.95;;;2.38;;
21299;SDS011;10809;49.476;11.016;2023-06-22T14:40:44;4.47;;;2.90;;
21299;SDS011;10809;49.476;11.016;2023-06-22T14:43:14;7.72;;;2.40;;
21299;SDS011;10809;49.476;11.016;2023-06-22T14:45:45;4.22;;;3.00;;
21299;SDS011;10809;49.476;11.016;2023-06-22T14:48:15;4.00;;;2.95;;
21299;SDS011;10809;49.476;11.016;2023-06-22T14:50:46;6.15;;;2.58;;
21299;SDS011;10809;49.476;11.016;2023-06-22T14:53:16;4.82;;;2.40;;
21299;SDS011;10809;49.476;11.016;2023-06-22T14:55:47;3.67;;;2.50;;
21299;SDS011;10809;49.476;11.016;2023-06-22T14:58:17;3.42;;;2.55;;
21299;SDS011;10809;49.476;11.016;2023-06-22T15:00:48;6.93;;;3.05;;
21299;SDS011;10809;49.476;11.016;2023-06-22T15:03:19;4.22;;;2.58;;
21299;SDS011;10809;49.476;11.016;2023-06-22T15:05:52;3.20;;;2.22;;
21299;SDS011;10809;49.476;11.016;2023-06-22T15:08:24;2.85;;;2.00;;
21299;SDS011;10809;49.476;11.016;2023-06-22T15:10:57;2.67;;;2.22;;
21299;SDS011;10809;49.476;11.016;2023-06-22T15:13:30;5.25;;;2.40;;